Tete/Chingozi Airport

Airport
ICAO code: 
FQTT
IATA Code: 
TET
Summary
ICAO Region: 
AFI
Territory: 
Location: 
Tete,
Serving: 
Tete
Elevation: 
525 ft
Coordinates: 
Aerial View: 
16° 6' 29.998" S, 33° 38' 22.999" E
Metar
Observation
FQTT 062200Z 00000KT 9999 FEW020 32/15 Q1010
Station
Tete / Chingozi
Date/Time
2021-12-06 22:00:00
Wind direction
Wind speed
00 kts
Lowest cloud amount
few clouds
Temperature
32°C
Dew point
15°C
Humidity
35%
QNH
1010 hPa
Weather condition
n/a

Runways

Designator Length Width Surface Rops
1/19 2507 45 ASP No/No
Airport map: 
Aerial View: 

SKYbrary Partners:

Safety knowledge contributed by: